Naugatuck River @ Beacon Falls, Ct

Naugatuck River at Beacon Falls
 Total Drainage Area: 259 sq. miles 
 Drainage Area Controlled by Corps Dams: 152 sq. miles (59%) 
 Warning Flow/Stage: 4,200 cfs / 7.0 feet 
 Flood Flow/Stage: 10,700 cfs / 10.7 feet 
Date Time
(Eastern)
Stage
(ft)
Flow
(cfs)
CSM
(cfs / sq. mi.)
Feb-08 03:00 pm 2.67 485 1.9
Feb-08 02:00 pm 2.69 493 1.9
Feb-08 01:00 pm 2.68 489 1.9
Feb-08 12:00 pm 2.68 489 1.9
Feb-08 11:00 am 2.69 493 1.9
Feb-08 10:00 am 2.68 489 1.9
Feb-08 09:00 am 2.67 485 1.9
Feb-08 08:00 am 2.67 485 1.9
Feb-08 07:00 am 2.68 489 1.9
Feb-08 06:00 am 2.67 485 1.9
Feb-08 05:00 am 2.68 489 1.9
Feb-08 04:00 am 2.69 493 1.9
Feb-08 03:00 am 2.70 498 1.9
Feb-08 02:00 am 2.70 498 1.9
Feb-08 01:00 am 2.70 498 1.9
Feb-08 12:00 am 2.72 506 2.0
Feb-07 11:00 pm 2.70 498 1.9
Feb-07 10:00 pm 2.68 489 1.9
Feb-07 09:00 pm 2.69 493 1.9
Feb-07 08:00 pm 2.67 485 1.9
Feb-07 07:00 pm 2.65 476 1.8
Feb-07 06:00 pm 2.66 481 1.9
Feb-07 05:00 pm 2.66 481 1.9
Feb-07 04:00 pm 2.66 481 1.9
Feb-07 03:00 pm 2.68 489 1.9
Report Generated February 08, 2023 03:23 pm